createdAt,value
2022-10-20T00:02:10.318Z,5.5
2022-10-20T00:07:53.587Z,4.6
2022-10-20T00:13:37.203Z,5
2022-10-20T00:19:20.314Z,4.6
2022-10-20T00:25:03.613Z,6
2022-10-20T00:30:46.956Z,6.3
2022-10-20T00:36:30.086Z,6.3
2022-10-20T00:42:16.933Z,5.8
2022-10-20T00:48:02.986Z,4.4
2022-10-20T00:53:47.258Z,4.9
2022-10-20T00:59:32.363Z,5.5
2022-10-20T01:05:15.994Z,5.3
2022-10-20T01:11:04.046Z,4.6
2022-10-20T01:16:52.707Z,5
2022-10-20T01:22:44.331Z,5.1
2022-10-20T01:28:29.841Z,5.7
2022-10-20T01:34:14.176Z,4.4
2022-10-20T01:40:01.303Z,5.7
2022-10-20T01:45:46.482Z,5.2
2022-10-20T01:51:29.867Z,4.6
2022-10-20T01:57:20.290Z,6.1
2022-10-20T02:03:14.084Z,5.6
2022-10-20T02:09:00.588Z,6.7
2022-10-20T02:14:44.810Z,5.7
2022-10-20T02:20:28.836Z,5.4
2022-10-20T02:26:15.618Z,6.1
2022-10-20T02:31:59.118Z,5.3
2022-10-20T02:37:42.726Z,4.6
2022-10-20T02:43:26.051Z,6
2022-10-20T02:49:09.185Z,5.5
2022-10-20T02:54:52.379Z,6.2
2022-10-20T03:00:35.792Z,6.1
2022-10-20T03:06:19.413Z,4.2
2022-10-20T03:12:03.029Z,4.3
2022-10-20T03:17:46.535Z,5.6
2022-10-20T03:23:29.894Z,5
2022-10-20T03:29:13.081Z,3.8
2022-10-20T03:34:56.223Z,5.6
2022-10-20T03:40:39.288Z,4.7
2022-10-20T03:46:22.553Z,4.6
2022-10-20T03:52:06.346Z,5
2022-10-20T03:57:49.514Z,4.1
2022-10-20T04:03:32.888Z,5.3
2022-10-20T04:09:16.270Z,5.2
2022-10-20T04:14:59.302Z,6
2022-10-20T04:20:47.090Z,5.2
2022-10-20T04:26:30.361Z,5.4
2022-10-20T04:32:14.471Z,5
2022-10-20T04:37:58.022Z,4.3
2022-10-20T04:43:41.161Z,3.9
2022-10-20T04:49:24.469Z,5.5
2022-10-20T04:55:09.087Z,5.4
2022-10-20T05:00:52.539Z,5.8
2022-10-20T05:06:35.964Z,5.2
2022-10-20T05:12:19.311Z,4.4
2022-10-20T05:18:02.514Z,4.9
2022-10-20T05:23:46.051Z,5.5
2022-10-20T05:29:29.610Z,8.4
2022-10-20T05:35:13.263Z,7.1
2022-10-20T05:40:57.516Z,6
2022-10-20T05:46:41.003Z,5.6
2022-10-20T05:52:24.168Z,6.4
2022-10-20T05:58:07.820Z,9.7
2022-10-20T06:03:54.299Z,7.6
2022-10-20T06:09:37.434Z,8.9
2022-10-20T06:15:20.840Z,9.6
2022-10-20T06:21:08.451Z,8.5
2022-10-20T06:26:51.577Z,11.1
2022-10-20T06:32:35.704Z,12.5
2022-10-20T06:38:19.322Z,10.5
2022-10-20T06:44:02.707Z,9.7
2022-10-20T06:49:46.193Z,7.8
2022-10-20T06:55:29.506Z,7
2022-10-20T07:01:15.295Z,7.5
2022-10-20T07:06:58.734Z,7.6
2022-10-20T07:12:42.364Z,8
2022-10-20T07:18:25.885Z,9.8
2022-10-20T07:24:10.028Z,7.3
2022-10-20T07:29:53.403Z,6.5
2022-10-20T07:35:36.966Z,8.6
2022-10-20T07:41:20.610Z,7.3
2022-10-20T07:47:03.737Z,6.2
2022-10-20T07:52:47.226Z,7.6
2022-10-20T07:58:30.374Z,8.5
2022-10-20T08:04:13.613Z,8.5
2022-10-20T08:09:56.845Z,7.5
2022-10-20T08:22:08.262Z,7.9
2022-10-20T08:27:51.844Z,7
2022-10-20T08:33:35.036Z,6.6
2022-10-20T08:39:18.338Z,8.3
2022-10-20T08:45:02.553Z,7.6
2022-10-20T08:50:47.605Z,6
2022-10-20T08:56:32.126Z,7.8
2022-10-20T09:02:17.327Z,7.4
2022-10-20T09:08:00.658Z,6.7
2022-10-20T09:13:44.232Z,8.2
2022-10-20T09:19:27.732Z,7.3
2022-10-20T09:25:15.579Z,7.3
2022-10-20T09:30:59.377Z,7
2022-10-20T09:36:43.339Z,6.9
2022-10-20T09:42:28.411Z,6
2022-10-20T09:48:21.343Z,6.2
2022-10-20T09:54:06.859Z,6.8
2022-10-20T09:59:52.521Z,6.2
2022-10-20T10:05:36.251Z,7.4
2022-10-20T10:11:21.456Z,6.5
2022-10-20T10:17:05.053Z,4.5
2022-10-20T10:22:48.578Z,6.6
2022-10-20T10:28:36.628Z,7.2
2022-10-20T10:34:31.414Z,6.1
2022-10-20T10:40:19.773Z,5.6
2022-10-20T10:46:06.887Z,6
2022-10-20T10:51:56.203Z,5.6
2022-10-20T10:57:45.013Z,5.5
2022-10-20T11:03:41.766Z,4.4
2022-10-20T11:09:30.259Z,5.5
2022-10-20T11:15:18.215Z,6.3
2022-10-20T11:21:06.422Z,6.4
2022-10-20T11:26:50.887Z,5
2022-10-20T11:32:37.854Z,5
2022-10-20T11:38:23.951Z,5.8
2022-10-20T11:44:10.690Z,4.4
2022-10-20T11:49:54.683Z,4.8
2022-10-20T11:55:49.194Z,5.3
2022-10-20T12:01:38.150Z,5.3
2022-10-20T12:07:34.935Z,7.1
2022-10-20T12:13:26.092Z,4.8
2022-10-20T12:19:18.731Z,5.3
2022-10-20T12:25:13.507Z,6.8
2022-10-20T12:31:00.542Z,6
2022-10-20T12:36:43.958Z,5
2022-10-20T12:42:32.296Z,5.8
2022-10-20T12:48:22.084Z,4.9
2022-10-20T12:54:07.241Z,4.3
2022-10-20T12:59:50.843Z,4.9
2022-10-20T13:05:57.333Z,5.5
2022-10-20T13:11:52.110Z,4.7
2022-10-20T13:17:46.992Z,3.6
2022-10-20T13:23:32.478Z,3.8
2022-10-20T13:29:21.021Z,3.9
2022-10-20T13:35:09.142Z,3
2022-10-20T13:40:57.308Z,3.6
2022-10-20T13:46:52.453Z,4.1
2022-10-20T13:52:38.742Z,4.2
2022-10-20T13:58:24.455Z,4.2
2022-10-20T14:04:15.702Z,3.8
2022-10-20T14:10:03.084Z,3.6
2022-10-20T14:15:48.361Z,3.5
2022-10-20T14:21:31.791Z,4.3
2022-10-20T14:27:16.525Z,4.1
2022-10-20T14:32:59.808Z,4.7
2022-10-20T14:38:48.221Z,4.3
2022-10-20T14:44:34.561Z,6.2
2022-10-20T14:50:26.448Z,4.1
2022-10-20T14:56:24.833Z,3.5
2022-10-20T15:02:12.859Z,3.4
2022-10-20T15:07:56.287Z,3.3
2022-10-20T15:13:39.985Z,4.1
2022-10-20T15:19:35.475Z,3.5
2022-10-20T15:25:18.761Z,3.8
2022-10-20T15:31:02.863Z,3.2
2022-10-20T15:36:52.126Z,2.9
2022-10-20T15:42:37.326Z,3
2022-10-20T15:48:21.811Z,4.3
2022-10-20T15:54:05.769Z,4.1
2022-10-20T15:59:49.143Z,5.8
2022-10-20T16:05:32.454Z,3.3
2022-10-20T16:11:16.346Z,4.1
2022-10-20T16:17:01.490Z,4.2
2022-10-20T16:22:45.293Z,4.6
2022-10-20T16:28:29.196Z,5
2022-10-20T16:34:14.942Z,5.2
2022-10-20T16:39:58.221Z,5.7
2022-10-20T16:45:45.027Z,3.8
2022-10-20T16:51:28.117Z,5
2022-10-20T16:57:11.587Z,5.3
2022-10-20T17:02:54.670Z,3.8
2022-10-20T17:08:38.734Z,4.2
2022-10-20T17:14:22.196Z,5.5
2022-10-20T17:20:05.882Z,3.7
2022-10-20T17:25:49.167Z,5.6
2022-10-20T17:31:32.569Z,3.6
2022-10-20T17:37:15.850Z,4.7
2022-10-20T17:42:58.999Z,5
2022-10-20T17:48:43.377Z,4.4
2022-10-20T17:54:26.686Z,5.7
2022-10-20T18:00:37.701Z,5.4
2022-10-20T18:06:15.427Z,4.3
2022-10-20T18:11:58.715Z,4.2
2022-10-20T18:17:41.959Z,3.7
2022-10-20T18:23:25.181Z,5.4
2022-10-20T18:29:09.286Z,4.8
2022-10-20T18:34:52.579Z,5.8
2022-10-20T18:40:35.656Z,5.1
2022-10-20T18:46:19.686Z,4.5
2022-10-20T18:52:02.893Z,4.4
2022-10-20T18:57:46.426Z,5.6
2022-10-20T19:03:29.645Z,6
2022-10-20T19:09:14.168Z,5.4
2022-10-20T19:14:57.807Z,5.1
2022-10-20T19:20:41.087Z,5.9
2022-10-20T19:26:25.495Z,5.8
2022-10-20T19:32:09.090Z,5.2
2022-10-20T19:37:52.304Z,4.2
2022-10-20T19:43:35.671Z,6.7
2022-10-20T19:49:19.187Z,5.2
2022-10-20T19:55:04.921Z,6.6
2022-10-20T20:00:50.121Z,5.5
2022-10-20T20:06:37.928Z,6.7
2022-10-20T20:12:21.082Z,6.1
2022-10-20T20:18:04.233Z,5
2022-10-20T20:24:01.870Z,6.1
2022-10-20T20:29:45.199Z,5.4
2022-10-20T20:35:28.433Z,5.7
2022-10-20T20:41:13.485Z,5.1
2022-10-20T20:46:56.545Z,5.2
2022-10-20T20:52:40.728Z,4.8
2022-10-20T20:58:24.648Z,6.5
2022-10-20T21:04:09.094Z,5
2022-10-20T21:09:52.287Z,7.8
2022-10-20T21:15:36.164Z,7.3
2022-10-20T21:21:20.543Z,6.3
2022-10-20T21:27:03.662Z,5.7
2022-10-20T21:32:47.238Z,6.6
2022-10-20T21:38:31.978Z,5.2
2022-10-20T21:44:16.066Z,5
2022-10-20T21:49:59.339Z,5.7
2022-10-20T21:55:42.536Z,6.2
2022-10-20T22:01:26.950Z,5.7
2022-10-20T22:07:10.118Z,4.6
2022-10-20T22:12:53.186Z,4.5
2022-10-20T22:18:36.597Z,4.2
2022-10-20T22:24:20.617Z,5.9
2022-10-20T22:30:03.818Z,4.4
2022-10-20T22:35:46.970Z,6.1
2022-10-20T22:41:30.314Z,4.2
2022-10-20T22:47:13.496Z,3.4
2022-10-20T22:52:56.863Z,4.9
2022-10-20T22:58:40.747Z,4.8
2022-10-20T23:04:24.014Z,5.2
2022-10-20T23:10:08.182Z,3.6
2022-10-20T23:15:55.934Z,6.7
2022-10-20T23:21:39.062Z,4.7
2022-10-20T23:27:22.462Z,4.2
2022-10-20T23:33:05.877Z,3.2
2022-10-20T23:38:50.443Z,4.3
2022-10-20T23:44:33.597Z,4.5
2022-10-20T23:50:17.051Z,4.5
2022-10-20T23:56:00.255Z,3.8
